Time;durP1;ratioP1;P1;durP2;ratioP2;P2;SDS_P1;SDS_P2;PMS_P1;PMS_P2;Temp;Humidity;BMP_temperature;BMP_pressure;BME280_temperature;BME280_humidity;BME280_pressure;Samples;Min_cycle;Max_cycle;Signal;HPM_P1;HPM_P2
2022/07/18 00:00:59;;;;;;;2.72;1.92;;;;;;;;;;1774237;80;21131;-64
2022/07/18 00:03:26;;;;;;;2.62;1.90;;;;;;;;;;1760819;81;21044;-64
2022/07/18 00:05:52;;;;;;;2.75;1.70;;;;;;;;;;1761616;81;21111;-64
2022/07/18 00:08:20;;;;;;;2.55;2.00;;;;;;;;;;1761510;80;21532;-64
2022/07/18 00:10:46;;;;;;;2.65;2.27;;;;;;;;;;1761273;80;21028;-64
2022/07/18 00:13:13;;;;;;;2.60;1.75;;;;;;;;;;1761034;81;21104;-64
2022/07/18 00:15:41;;;;;;;2.20;2.00;;;;;;;;;;1729709;83;21055;-63
2022/07/18 00:18:08;;;;;;;2.12;1.85;;;;;;;;;;1699600;83;21536;-64
2022/07/18 00:20:34;;;;;;;2.00;1.80;;;;;;;;;;1720623;81;21057;-64
2022/07/18 00:23:02;;;;;;;2.33;1.85;;;;;;;;;;1722784;82;21081;-64
2022/07/18 00:25:28;;;;;;;4.50;1.80;;;;;;;;;;1697461;84;21062;-64
2022/07/18 00:27:56;;;;;;;2.00;1.80;;;;;;;;;;1728044;83;21997;-64
2022/07/18 00:30:22;;;;;;;2.77;1.90;;;;;;;;;;1727708;81;22456;-63
2022/07/18 00:32:49;;;;;;;2.10;1.90;;;;;;;;;;1728118;82;21048;-63
2022/07/18 00:35:15;;;;;;;2.65;1.85;;;;;;;;;;1678866;85;21056;-65
2022/07/18 00:37:41;;;;;;;2.77;1.80;;;;;;;;;;1690456;83;21584;-65
2022/07/18 00:40:08;;;;;;;2.10;1.90;;;;;;;;;;1702257;84;21528;-64
2022/07/18 00:42:34;;;;;;;2.98;2.05;;;;;;;;;;1701589;83;21544;-64
2022/07/18 00:45:00;;;;;;;4.87;1.90;;;;;;;;;;1726340;83;21088;-63
2022/07/18 00:47:26;;;;;;;4.37;1.90;;;;;;;;;;1683416;85;21055;-64
2022/07/18 00:49:52;;;;;;;1.90;1.60;;;;;;;;;;1718163;83;21045;-63
2022/07/18 00:52:18;;;;;;;2.92;2.00;;;;;;;;;;1717155;82;21114;-63
2022/07/18 00:54:45;;;;;;;2.25;1.72;;;;;;;;;;1718341;83;21510;-64
2022/07/18 00:57:12;;;;;;;2.62;2.05;;;;;;;;;;1717700;83;21078;-63
2022/07/18 01:05:05;;;;;;;4.78;2.10;;;;;;;;;;1706267;81;21106;-65
2022/07/18 01:07:31;;;;;;;3.62;1.90;;;;;;;;;;1729448;82;20972;-66
2022/07/18 01:09:58;;;;;;;8.15;2.00;;;;;;;;;;1721699;83;21028;-66
2022/07/18 01:12:27;;;;;;;2.22;1.82;;;;;;;;;;1721390;83;21036;-65
2022/07/18 01:14:55;;;;;;;1.80;1.70;;;;;;;;;;1720847;83;21040;-65
2022/07/18 01:17:21;;;;;;;2.22;1.70;;;;;;;;;;1713890;82;21326;-66
2022/07/18 01:19:47;;;;;;;4.40;2.10;;;;;;;;;;1719250;83;21039;-67
2022/07/18 01:22:14;;;;;;;3.10;1.82;;;;;;;;;;1720276;83;21060;-66
2022/07/18 01:24:41;;;;;;;1.98;1.80;;;;;;;;;;1720025;83;21526;-67
2022/07/18 01:27:07;;;;;;;3.08;2.05;;;;;;;;;;1714998;82;21024;-66
2022/07/18 01:29:33;;;;;;;2.55;1.90;;;;;;;;;;1732274;82;21039;-67
2022/07/18 01:32:04;;;;;;;3.87;1.95;;;;;;;;;;1736510;82;21080;-67
2022/07/18 01:34:30;;;;;;;2.83;2.37;;;;;;;;;;1729325;82;21076;-67
2022/07/18 01:36:56;;;;;;;2.45;1.77;;;;;;;;;;1721195;82;20968;-67
2022/07/18 01:39:23;;;;;;;3.10;2.27;;;;;;;;;;1719256;82;21491;-67
2022/07/18 01:41:56;;;;;;;2.60;2.40;;;;;;;;;;1736953;82;20988;-66
2022/07/18 01:44:23;;;;;;;3.20;2.10;;;;;;;;;;1729903;82;21060;-66
2022/07/18 01:46:49;;;;;;;2.70;2.22;;;;;;;;;;1723066;83;21074;-66
2022/07/18 01:49:15;;;;;;;2.58;2.20;;;;;;;;;;1722179;82;21046;-66
2022/07/18 01:51:43;;;;;;;3.05;2.12;;;;;;;;;;1736823;82;21063;-66
2022/07/18 01:54:09;;;;;;;3.33;2.40;;;;;;;;;;1731857;82;21052;-66
2022/07/18 01:56:35;;;;;;;3.77;2.58;;;;;;;;;;1723768;83;21074;-66
2022/07/18 01:59:02;;;;;;;2.60;1.98;;;;;;;;;;1721946;82;21548;-66
2022/07/18 02:01:28;;;;;;;3.52;2.12;;;;;;;;;;1736096;82;21013;-66
2022/07/18 02:03:54;;;;;;;2.87;2.27;;;;;;;;;;1742272;80;21055;-66
2022/07/18 02:06:21;;;;;;;5.08;2.52;;;;;;;;;;1730044;82;21033;-66
2022/07/18 02:08:47;;;;;;;3.17;2.30;;;;;;;;;;1729479;82;21552;-66
2022/07/18 02:11:13;;;;;;;5.62;2.62;;;;;;;;;;1756197;80;21004;-66
2022/07/18 02:13:40;;;;;;;5.28;2.42;;;;;;;;;;1760999;80;21127;-66
2022/07/18 02:16:06;;;;;;;5.37;2.67;;;;;;;;;;1731973;80;21025;-66
2022/07/18 02:18:32;;;;;;;3.58;2.70;;;;;;;;;;1735828;80;21009;-66
2022/07/18 02:20:59;;;;;;;4.95;2.70;;;;;;;;;;1749093;80;21001;-66
2022/07/18 02:23:25;;;;;;;3.40;2.30;;;;;;;;;;1760898;80;21343;-66
2022/07/18 02:25:51;;;;;;;2.98;2.37;;;;;;;;;;1779634;80;21048;-66
2022/07/18 02:28:18;;;;;;;3.10;2.30;;;;;;;;;;1748374;80;21048;-66
2022/07/18 02:30:43;;;;;;;4.72;2.45;;;;;;;;;;1727503;82;21029;-66
2022/07/18 02:33:09;;;;;;;3.45;2.45;;;;;;;;;;1727695;83;21531;-66
2022/07/18 02:35:36;;;;;;;2.10;1.90;;;;;;;;;;1774821;80;21072;-66
2022/07/18 02:38:02;;;;;;;2.72;2.10;;;;;;;;;;1758874;80;21037;-66
2022/07/18 02:40:28;;;;;;;4.60;2.17;;;;;;;;;;1759653;80;21080;-66
2022/07/18 02:42:54;;;;;;;4.03;1.98;;;;;;;;;;1761732;81;21488;-66
2022/07/18 02:45:20;;;;;;;5.55;2.00;;;;;;;;;;1774686;80;21480;-67
2022/07/18 02:47:46;;;;;;;2.20;2.00;;;;;;;;;;1765590;80;20977;-66
2022/07/18 02:50:12;;;;;;;2.87;1.85;;;;;;;;;;1761425;80;21039;-66
2022/07/18 02:52:39;;;;;;;3.52;2.10;;;;;;;;;;1761668;81;20993;-66
2022/07/18 02:55:05;;;;;;;3.17;2.00;;;;;;;;;;1742975;81;21567;-66
2022/07/18 02:57:31;;;;;;;2.30;1.90;;;;;;;;;;1744624;80;21072;-66
2022/07/18 02:59:57;;;;;;;2.65;2.17;;;;;;;;;;1761661;81;20989;-66
2022/07/18 03:02:23;;;;;;;7.40;3.45;;;;;;;;;;1761789;81;20985;-66
2022/07/18 03:04:49;;;;;;;2.37;1.90;;;;;;;;;;1766448;80;21079;-66
2022/07/18 03:07:15;;;;;;;4.28;2.17;;;;;;;;;;1766086;81;21487;-66
2022/07/18 03:09:41;;;;;;;4.00;2.10;;;;;;;;;;1766348;80;21032;-66
2022/07/18 03:12:08;;;;;;;2.80;2.05;;;;;;;;;;1790372;80;21055;-66
2022/07/18 03:14:34;;;;;;;3.72;1.95;;;;;;;;;;1738355;81;21504;-66
2022/07/18 03:17:00;;;;;;;3.55;2.00;;;;;;;;;;1749223;81;21041;-66
2022/07/18 03:19:26;;;;;;;3.08;1.92;;;;;;;;;;1752436;81;20990;-66
2022/07/18 03:21:54;;;;;;;3.35;2.25;;;;;;;;;;1752117;82;21021;-66
2022/07/18 03:24:20;;;;;;;2.87;2.30;;;;;;;;;;1759162;80;20990;-66
2022/07/18 03:26:46;;;;;;;3.02;2.27;;;;;;;;;;1758731;81;20974;-66
2022/07/18 03:29:12;;;;;;;3.37;2.72;;;;;;;;;;1752113;82;20978;-66
2022/07/18 03:31:38;;;;;;;3.80;3.00;;;;;;;;;;1752139;81;21001;-66
2022/07/18 03:34:05;;;;;;;4.90;2.80;;;;;;;;;;1750126;81;21503;-66
2022/07/18 03:36:31;;;;;;;3.10;2.52;;;;;;;;;;1751112;82;21076;-66
2022/07/18 03:38:58;;;;;;;3.22;2.30;;;;;;;;;;1752009;81;21066;-66
2022/07/18 03:41:24;;;;;;;2.50;2.08;;;;;;;;;;1751762;81;21493;-67
2022/07/18 03:43:50;;;;;;;3.60;2.40;;;;;;;;;;1753623;80;21068;-67
2022/07/18 03:46:17;;;;;;;6.08;2.40;;;;;;;;;;1733101;81;21029;-67
2022/07/18 03:48:44;;;;;;;2.40;1.90;;;;;;;;;;1720372;83;21101;-67
2022/07/18 03:51:10;;;;;;;3.87;1.98;;;;;;;;;;1734238;81;21032;-67
2022/07/18 03:53:37;;;;;;;2.87;2.37;;;;;;;;;;1743237;81;21539;-67
2022/07/18 03:56:04;;;;;;;2.60;1.98;;;;;;;;;;1723112;82;21065;-67
2022/07/18 03:58:30;;;;;;;2.47;2.02;;;;;;;;;;1720803;82;21069;-67
2022/07/18 04:00:56;;;;;;;2.35;2.10;;;;;;;;;;1730318;81;21511;-67
2022/07/18 04:03:22;;;;;;;3.77;2.58;;;;;;;;;;1752015;81;21084;-67
2022/07/18 04:05:48;;;;;;;3.08;2.20;;;;;;;;;;1752883;80;21013;-67
2022/07/18 04:08:15;;;;;;;2.65;2.10;;;;;;;;;;1747396;82;21064;-67
2022/07/18 04:10:43;;;;;;;3.58;2.40;;;;;;;;;;1749215;81;20977;-68
2022/07/18 04:13:09;;;;;;;3.80;2.45;;;;;;;;;;1752582;81;21009;-68
2022/07/18 04:15:35;;;;;;;3.12;2.30;;;;;;;;;;1749003;80;21013;-68
2022/07/18 04:18:02;;;;;;;2.55;2.22;;;;;;;;;;1749095;81;21033;-68
2022/07/18 04:20:28;;;;;;;4.12;2.00;;;;;;;;;;1753742;81;21021;-69
2022/07/18 04:22:56;;;;;;;3.80;2.30;;;;;;;;;;1754010;81;21049;-68
2022/07/18 04:25:22;;;;;;;3.80;2.20;;;;;;;;;;1748018;81;21061;-68
2022/07/18 04:27:48;;;;;;;2.77;2.37;;;;;;;;;;1733352;82;21535;-68
2022/07/18 04:30:18;;;;;;;2.12;1.90;;;;;;;;;;1738451;81;21541;-68
2022/07/18 04:32:44;;;;;;;2.25;2.02;;;;;;;;;;1740519;82;21020;-68
2022/07/18 04:35:11;;;;;;;3.55;2.55;;;;;;;;;;1759790;81;21551;-68
2022/07/18 04:37:38;;;;;;;3.02;2.15;;;;;;;;;;1745593;81;21099;-67
2022/07/18 04:40:05;;;;;;;2.85;2.20;;;;;;;;;;1749243;82;21008;-67
2022/07/18 04:42:31;;;;;;;3.22;2.40;;;;;;;;;;1758378;81;21060;-67
2022/07/18 04:44:57;;;;;;;3.42;2.37;;;;;;;;;;1763195;80;21457;-67
2022/07/18 04:47:24;;;;;;;3.22;2.40;;;;;;;;;;1732562;81;21081;-68
2022/07/18 04:49:50;;;;;;;2.72;2.17;;;;;;;;;;1741646;80;21036;-68
2022/07/18 04:52:16;;;;;;;4.45;2.20;;;;;;;;;;1749121;81;21149;-67
2022/07/18 04:54:42;;;;;;;3.85;2.40;;;;;;;;;;1736595;81;21500;-68
2022/07/18 04:57:14;;;;;;;2.87;2.10;;;;;;;;;;1766730;81;21044;-67
2022/07/18 04:59:41;;;;;;;2.40;1.98;;;;;;;;;;1729693;81;21476;-68
2022/07/18 05:02:08;;;;;;;4.25;2.50;;;;;;;;;;1743677;81;21322;-68
2022/07/18 05:04:34;;;;;;;3.00;2.20;;;;;;;;;;1742023;82;21142;-68
2022/07/18 05:07:01;;;;;;;2.92;2.17;;;;;;;;;;1704748;83;21112;-68
2022/07/18 05:09:28;;;;;;;3.33;2.33;;;;;;;;;;1710954;82;21020;-68
2022/07/18 05:11:55;;;;;;;3.00;2.25;;;;;;;;;;1776748;80;21048;-69
2022/07/18 05:14:21;;;;;;;2.42;2.22;;;;;;;;;;1762897;80;22169;-67
2022/07/18 05:16:48;;;;;;;3.50;2.50;;;;;;;;;;1735322;82;21064;-68
2022/07/18 05:19:17;;;;;;;2.85;2.10;;;;;;;;;;1740892;82;20989;-67
2022/07/18 05:21:43;;;;;;;3.27;2.27;;;;;;;;;;1776669;80;21024;-69
2022/07/18 05:24:09;;;;;;;4.17;2.55;;;;;;;;;;1719991;83;20993;-68
2022/07/18 05:26:36;;;;;;;3.30;2.20;;;;;;;;;;1717067;83;21713;-70
2022/07/18 05:29:03;;;;;;;4.33;2.40;;;;;;;;;;1720159;83;21036;-69
2022/07/18 05:31:29;;;;;;;3.45;2.02;;;;;;;;;;1698891;84;21072;-69
2022/07/18 05:33:55;;;;;;;4.10;2.00;;;;;;;;;;1732955;82;22071;-69
2022/07/18 05:36:21;;;;;;;2.92;2.12;;;;;;;;;;1705257;84;21615;-69
2022/07/18 05:38:49;;;;;;;4.45;2.37;;;;;;;;;;1720072;82;21020;-67
2022/07/18 05:41:16;;;;;;;2.90;2.25;;;;;;;;;;1779899;80;21598;-67
2022/07/18 05:43:42;;;;;;;3.72;2.22;;;;;;;;;;1747873;80;21021;-67
2022/07/18 05:46:08;;;;;;;2.72;2.10;;;;;;;;;;1730621;80;21075;-67
2022/07/18 05:48:34;;;;;;;2.20;1.80;;;;;;;;;;1755208;80;21020;-67
2022/07/18 05:51:00;;;;;;;4.03;2.40;;;;;;;;;;1757821;80;21023;-69
2022/07/18 05:53:26;;;;;;;2.22;1.80;;;;;;;;;;1765453;81;21024;-68
2022/07/18 05:55:55;;;;;;;4.35;2.25;;;;;;;;;;1764741;81;21007;-67
2022/07/18 05:58:22;;;;;;;3.72;2.30;;;;;;;;;;1761324;80;21099;-68
2022/07/18 06:00:48;;;;;;;5.10;2.20;;;;;;;;;;1743893;80;21546;-69
2022/07/18 06:03:14;;;;;;;3.05;2.00;;;;;;;;;;1764652;81;21543;-69
2022/07/18 06:05:40;;;;;;;2.92;2.20;;;;;;;;;;1755765;80;20998;-67
2022/07/18 06:08:07;;;;;;;3.10;1.85;;;;;;;;;;1743478;80;20977;-68
2022/07/18 06:10:33;;;;;;;3.02;2.15;;;;;;;;;;1751501;81;21532;-67
2022/07/18 06:12:59;;;;;;;2.30;2.00;;;;;;;;;;1753287;80;21052;-67
2022/07/18 06:15:28;;;;;;;2.85;2.05;;;;;;;;;;1768857;80;21024;-67
2022/07/18 06:17:54;;;;;;;3.92;2.45;;;;;;;;;;1737895;80;21076;-67
2022/07/18 06:20:20;;;;;;;3.08;2.10;;;;;;;;;;1713210;80;21061;-68
2022/07/18 06:22:46;;;;;;;5.12;2.72;;;;;;;;;;1756177;81;21061;-68
2022/07/18 06:25:12;;;;;;;3.75;2.10;;;;;;;;;;1750859;80;21508;-68
2022/07/18 06:27:38;;;;;;;2.77;2.08;;;;;;;;;;1754688;80;21464;-68
2022/07/18 06:30:04;;;;;;;3.35;2.20;;;;;;;;;;1750391;80;21052;-68
2022/07/18 06:32:31;;;;;;;2.95;2.20;;;;;;;;;;1738680;80;21034;-68
2022/07/18 06:35:15;;;;;;;2.33;1.90;;;;;;;;;;1714194;80;21391;-68
2022/07/18 06:37:41;;;;;;;4.05;1.98;;;;;;;;;;1764253;80;21088;-68
2022/07/18 06:40:07;;;;;;;3.67;2.00;;;;;;;;;;1779933;80;21020;-68
2022/07/18 06:42:34;;;;;;;4.03;2.10;;;;;;;;;;1772316;80;21036;-68
2022/07/18 06:45:01;;;;;;;5.35;2.08;;;;;;;;;;1761391;80;21516;-69
2022/07/18 06:47:27;;;;;;;2.92;2.10;;;;;;;;;;1752057;80;21084;-68
2022/07/18 06:49:53;;;;;;;3.90;2.00;;;;;;;;;;1747728;80;22216;-69
2022/07/18 06:52:19;;;;;;;4.78;2.30;;;;;;;;;;1703976;82;20965;-69
2022/07/18 06:54:45;;;;;;;4.78;2.30;;;;;;;;;;1706078;83;22001;-67
2022/07/18 06:57:11;;;;;;;3.72;2.30;;;;;;;;;;1703705;82;21060;-64
2022/07/18 06:59:37;;;;;;;2.90;2.10;;;;;;;;;;1713585;82;20965;-64
2022/07/18 07:02:03;;;;;;;2.62;2.05;;;;;;;;;;1702842;83;21041;-66
2022/07/18 07:04:29;;;;;;;2.47;2.00;;;;;;;;;;1709450;83;21100;-71
2022/07/18 07:06:56;;;;;;;2.83;2.10;;;;;;;;;;1707843;82;21017;-75
2022/07/18 07:09:22;;;;;;;3.12;2.20;;;;;;;;;;1686575;85;21097;-70
2022/07/18 07:11:48;;;;;;;3.60;2.25;;;;;;;;;;1709193;83;21001;-72
2022/07/18 07:14:15;;;;;;;4.00;2.10;;;;;;;;;;1690869;84;21057;-70
2022/07/18 07:16:41;;;;;;;2.37;2.00;;;;;;;;;;1709627;83;21048;-69
2022/07/18 07:19:08;;;;;;;3.35;2.17;;;;;;;;;;1711131;82;21520;-69
2022/07/18 07:21:34;;;;;;;2.85;2.00;;;;;;;;;;1708171;82;20997;-68
2022/07/18 07:24:01;;;;;;;2.65;2.10;;;;;;;;;;1677326;83;21054;-66
2022/07/18 07:26:27;;;;;;;3.58;2.00;;;;;;;;;;1701268;83;21068;-67
2022/07/18 07:28:53;;;;;;;2.37;2.00;;;;;;;;;;1742948;80;21036;-66
2022/07/18 07:31:20;;;;;;;2.30;1.80;;;;;;;;;;1739201;82;21045;-67
2022/07/18 07:33:46;;;;;;;3.70;2.05;;;;;;;;;;1733488;80;21063;-67
2022/07/18 07:36:12;;;;;;;3.45;2.17;;;;;;;;;;1748499;80;21509;-68
2022/07/18 07:38:38;;;;;;;29.23;24.65;;;;;;;;;;1732454;80;20985;-68
2022/07/18 07:41:04;;;;;;;97.37;70.83;;;;;;;;;;1728383;82;21013;-69
2022/07/18 07:43:31;;;;;;;11.83;9.58;;;;;;;;;;1747149;80;20990;-69
2022/07/18 07:45:57;;;;;;;2.80;2.00;;;;;;;;;;1743970;80;21048;-68
2022/07/18 07:48:23;;;;;;;4.33;1.72;;;;;;;;;;1750076;81;21494;-68
2022/07/18 07:50:50;;;;;;;2.60;1.92;;;;;;;;;;1742099;80;21295;-67
2022/07/18 07:53:16;;;;;;;2.42;1.87;;;;;;;;;;1736673;81;21069;-67
2022/07/18 07:55:43;;;;;;;2.05;1.77;;;;;;;;;;1767582;80;21068;-66
2022/07/18 07:58:09;;;;;;;2.60;1.82;;;;;;;;;;1736984;81;21473;-67
2022/07/18 08:00:36;;;;;;;2.80;1.87;;;;;;;;;;1742292;81;21048;-67
2022/07/18 08:03:03;;;;;;;1.90;1.60;;;;;;;;;;1746927;81;21057;-68
2022/07/18 08:05:30;;;;;;;2.42;1.80;;;;;;;;;;1754152;80;21020;-67
2022/07/18 08:07:57;;;;;;;2.77;1.60;;;;;;;;;;1723914;81;21040;-67
2022/07/18 08:10:23;;;;;;;2.30;1.80;;;;;;;;;;1746488;81;20964;-66
2022/07/18 08:12:49;;;;;;;5.90;4.92;;;;;;;;;;1741774;81;21084;-69
2022/07/18 08:15:15;;;;;;;13.00;10.38;;;;;;;;;;1730357;82;21075;-68
2022/07/18 08:17:42;;;;;;;27.07;23.32;;;;;;;;;;1730779;83;21090;-67
2022/07/18 08:20:09;;;;;;;1.75;1.55;;;;;;;;;;1730846;81;21828;-70
2022/07/18 08:22:36;;;;;;;6.10;1.87;;;;;;;;;;1739023;81;21516;-70
2022/07/18 08:25:03;;;;;;;1.72;1.60;;;;;;;;;;1707839;83;21529;-70
2022/07/18 08:27:29;;;;;;;2.22;1.50;;;;;;;;;;1707087;83;21062;-69
2022/07/18 08:29:55;;;;;;;1.70;1.30;;;;;;;;;;1714323;82;21482;-70
2022/07/18 08:32:22;;;;;;;1.42;1.32;;;;;;;;;;1745859;81;21028;-70
2022/07/18 08:34:47;;;;;;;4.83;1.50;;;;;;;;;;1726752;81;22536;-69
2022/07/18 08:37:14;;;;;;;4.25;1.50;;;;;;;;;;1743848;81;22187;-70
2022/07/18 08:39:41;;;;;;;1.42;1.32;;;;;;;;;;1731972;81;21056;-70
2022/07/18 08:42:07;;;;;;;1.45;1.27;;;;;;;;;;1742704;80;21053;-70
2022/07/18 08:44:33;;;;;;;1.52;1.37;;;;;;;;;;1754679;80;21053;-70
2022/07/18 08:47:01;;;;;;;2.30;1.52;;;;;;;;;;1748611;80;21067;-70
2022/07/18 08:49:27;;;;;;;2.70;1.50;;;;;;;;;;1743184;80;21079;-70
2022/07/18 08:51:53;;;;;;;3.30;1.40;;;;;;;;;;1746674;81;21528;-68
2022/07/18 08:54:19;;;;;;;2.25;1.40;;;;;;;;;;1757752;80;21630;-67
2022/07/18 08:56:45;;;;;;;2.22;1.40;;;;;;;;;;1745962;81;21056;-67
2022/07/18 08:59:14;;;;;;;4.65;1.27;;;;;;;;;;1745737;82;21825;-68
2022/07/18 09:01:40;;;;;;;1.42;1.30;;;;;;;;;;1725369;81;21571;-67
2022/07/18 09:04:14;;;;;;;1.15;1.10;;;;;;;;;;1747667;80;21056;-68
2022/07/18 09:06:42;;;;;;;1.82;1.22;;;;;;;;;;1748094;80;21022;-67
2022/07/18 09:09:08;;;;;;;1.72;1.35;;;;;;;;;;1740668;81;21153;-67
2022/07/18 09:11:34;;;;;;;2.42;1.40;;;;;;;;;;1717657;83;21019;-67
2022/07/18 09:14:01;;;;;;;2.58;1.30;;;;;;;;;;1739148;81;21513;-67
2022/07/18 09:16:27;;;;;;;1.67;1.40;;;;;;;;;;1744739;80;21024;-67
2022/07/18 09:18:53;;;;;;;1.40;1.30;;;;;;;;;;1748697;81;21793;-66
2022/07/18 09:21:20;;;;;;;1.50;1.25;;;;;;;;;;1736010;81;21064;-65
2022/07/18 09:23:52;;;;;;;1.32;1.17;;;;;;;;;;1741384;82;21045;-67
2022/07/18 09:26:35;;;;;;;1.60;1.30;;;;;;;;;;1745984;81;21064;-66
2022/07/18 09:29:01;;;;;;;1.20;1.10;;;;;;;;;;1741046;80;21032;-69
2022/07/18 09:31:28;;;;;;;2.72;1.30;;;;;;;;;;1741211;81;21053;-69
2022/07/18 09:33:56;;;;;;;2.30;1.50;;;;;;;;;;1720808;81;21068;-69
2022/07/18 09:36:22;;;;;;;1.42;1.07;;;;;;;;;;1745441;81;21065;-69
2022/07/18 09:38:48;;;;;;;3.90;1.10;;;;;;;;;;1720253;81;20989;-68
2022/07/18 09:41:15;;;;;;;1.37;1.15;;;;;;;;;;1739428;81;21048;-69
2022/07/18 09:43:41;;;;;;;1.27;1.15;;;;;;;;;;1738711;81;21051;-70
2022/07/18 09:46:07;;;;;;;2.12;1.17;;;;;;;;;;1736375;81;21052;-69
2022/07/18 09:48:33;;;;;;;1.40;1.20;;;;;;;;;;1721390;83;21085;-70
2022/07/18 09:51:02;;;;;;;3.22;1.27;;;;;;;;;;1749978;81;21007;-67
2022/07/18 09:53:33;;;;;;;1.20;1.07;;;;;;;;;;1746271;80;21045;-67
2022/07/18 09:56:00;;;;;;;1.60;1.00;;;;;;;;;;1734528;80;21072;-68
2022/07/18 09:58:27;;;;;;;1.20;1.10;;;;;;;;;;1745885;81;21595;-67
2022/07/18 10:00:54;;;;;;;2.17;1.00;;;;;;;;;;1744404;81;21123;-67
2022/07/18 10:03:20;;;;;;;1.12;1.00;;;;;;;;;;1721125;81;20997;-66
2022/07/18 10:05:47;;;;;;;1.22;1.12;;;;;;;;;;1740498;81;21588;-67
2022/07/18 10:08:15;;;;;;;1.82;1.00;;;;;;;;;;1741464;81;21092;-67
2022/07/18 10:10:42;;;;;;;1.52;1.20;;;;;;;;;;1736163;81;21069;-67
2022/07/18 10:13:08;;;;;;;1.40;1.30;;;;;;;;;;1711555;82;21728;-65
2022/07/18 10:15:39;;;;;;;1.30;1.20;;;;;;;;;;1761138;80;21567;-66
2022/07/18 10:18:07;;;;;;;4.17;1.42;;;;;;;;;;1747006;81;21048;-65
2022/07/18 10:20:37;;;;;;;1.10;0.90;;;;;;;;;;1767495;80;20989;-65
2022/07/18 10:23:25;;;;;;;1.15;1.15;;;;;;;;;;1733548;81;21060;-67
2022/07/18 10:25:42;;;;;;;1.42;1.00;;;;;;;;;;1704948;81;21562;-66
2022/07/18 10:28:09;;;;;;;2.45;1.05;;;;;;;;;;1771704;80;21133;-66
2022/07/18 10:30:37;;;;;;;1.22;1.07;;;;;;;;;;1741342;81;21020;-66
2022/07/18 10:33:03;;;;;;;1.02;0.80;;;;;;;;;;1723569;81;21076;-67
2022/07/18 10:35:48;;;;;;;0.80;0.80;;;;;;;;;;1780539;80;21001;-66
2022/07/18 10:38:25;;;;;;;1.20;1.10;;;;;;;;;;1735921;81;21017;-67
2022/07/18 10:41:08;;;;;;;1.72;0.90;;;;;;;;;;1755805;80;21464;-69
2022/07/18 10:43:35;;;;;;;1.67;1.15;;;;;;;;;;1753391;81;21021;-68
2022/07/18 10:46:02;;;;;;;0.90;0.90;;;;;;;;;;1753201;80;21044;-64
2022/07/18 10:48:36;;;;;;;1.35;1.25;;;;;;;;;;1750900;80;21488;-66
2022/07/18 10:51:06;;;;;;;1.25;1.15;;;;;;;;;;1748626;80;21036;-67
2022/07/18 10:53:50;;;;;;;3.37;1.25;;;;;;;;;;1730652;81;21555;-66
2022/07/18 10:56:16;;;;;;;1.40;0.90;;;;;;;;;;1732979;81;21072;-66
2022/07/18 10:58:43;;;;;;;0.82;0.80;;;;;;;;;;1758402;80;21583;-66
2022/07/18 11:01:11;;;;;;;1.82;1.15;;;;;;;;;;1727853;81;21048;-66
2022/07/18 11:03:37;;;;;;;1.95;0.70;;;;;;;;;;1727228;81;20984;-66
2022/07/18 11:06:03;;;;;;;1.92;1.30;;;;;;;;;;1721958;81;21282;-66
2022/07/18 11:42:09;;;;;;;2.77;1.25;;;;;;;;;;1814488;77;23265;-60
2022/07/18 11:44:36;;;;;;;2.80;1.30;;;;;;;;;;1787676;80;21032;-61
2022/07/18 11:47:04;;;;;;;3.55;1.10;;;;;;;;;;1779327;80;21020;-61
2022/07/18 11:49:30;;;;;;;2.95;1.07;;;;;;;;;;1778631;80;21047;-62
2022/07/18 11:51:58;;;;;;;2.70;1.45;;;;;;;;;;1763852;81;21086;-65
2022/07/18 11:54:25;;;;;;;12.53;8.25;;;;;;;;;;1763719;81;21037;-64
2022/07/18 11:56:52;;;;;;;35.25;26.70;;;;;;;;;;1764620;80;21012;-64
2022/07/18 11:59:20;;;;;;;4.90;3.40;;;;;;;;;;1768858;81;21070;-61
2022/07/18 12:01:52;;;;;;;26.73;3.00;;;;;;;;;;1773129;79;21054;-60
2022/07/18 12:04:18;;;;;;;2.62;1.35;;;;;;;;;;1762702;81;21046;-61
2022/07/18 12:06:44;;;;;;;1.92;0.93;;;;;;;;;;1769963;81;21601;-62
2022/07/18 12:09:10;;;;;;;2.45;0.98;;;;;;;;;;1770441;79;21050;-60
2022/07/18 12:11:38;;;;;;;1.22;1.10;;;;;;;;;;1758868;81;21047;-62
2022/07/18 12:14:06;;;;;;;1.07;1.00;;;;;;;;;;1770184;81;21070;-61
2022/07/18 12:16:36;;;;;;;2.95;1.30;;;;;;;;;;1767085;79;21033;-62
2022/07/18 12:19:12;;;;;;;1.20;1.10;;;;;;;;;;1753450;81;21097;-60
2022/07/18 12:21:53;;;;;;;1.02;0.98;;;;;;;;;;1763723;81;21010;-60
2022/07/18 12:24:26;;;;;;;1.55;1.10;;;;;;;;;;1749934;81;21046;-62
2022/07/18 12:27:12;;;;;;;4.25;1.22;;;;;;;;;;1758373;81;20983;-61
2022/07/18 12:29:55;;;;;;;2.55;1.22;;;;;;;;;;1770624;81;21058;-62
2022/07/18 12:32:23;;;;;;;5.37;1.30;;;;;;;;;;1769308;80;21067;-61
2022/07/18 12:35:02;;;;;;;2.95;0.98;;;;;;;;;;1760311;81;20971;-61
2022/07/18 12:37:29;;;;;;;1.00;0.90;;;;;;;;;;1764773;81;21030;-61
2022/07/18 12:39:57;;;;;;;1.00;0.90;;;;;;;;;;1764462;80;21027;-61
2022/07/18 12:42:28;;;;;;;0.78;0.78;;;;;;;;;;1756848;81;21102;-61
2022/07/18 12:44:55;;;;;;;1.85;0.90;;;;;;;;;;1759027;81;21029;-61
2022/07/18 12:47:21;;;;;;;3.87;1.40;;;;;;;;;;1762681;81;21034;-61
2022/07/18 12:49:47;;;;;;;2.27;1.10;;;;;;;;;;1767730;81;21003;-60
2022/07/18 12:52:13;;;;;;;2.83;1.15;;;;;;;;;;1775474;78;21019;-61
2022/07/18 12:54:40;;;;;;;1.80;1.30;;;;;;;;;;1761875;80;21038;-61
2022/07/18 12:57:08;;;;;;;3.17;1.10;;;;;;;;;;1762294;81;21514;-60
2022/07/18 12:59:35;;;;;;;1.32;1.00;;;;;;;;;;1763528;79;21003;-62
2022/07/18 13:02:02;;;;;;;1.22;1.00;;;;;;;;;;1768316;81;21593;-61
2022/07/18 13:04:29;;;;;;;1.15;1.00;;;;;;;;;;1764353;81;21090;-60
2022/07/18 13:06:55;;;;;;;1.90;1.00;;;;;;;;;;1770127;80;21096;-61
2022/07/18 13:09:21;;;;;;;0.82;0.80;;;;;;;;;;1762560;81;21042;-60
2022/07/18 13:11:48;;;;;;;1.82;1.10;;;;;;;;;;1771702;79;20987;-61
2022/07/18 13:14:16;;;;;;;1.32;1.20;;;;;;;;;;1760162;78;21681;-61
2022/07/18 13:16:45;;;;;;;1.95;0.65;;;;;;;;;;1785837;79;21007;-62
2022/07/18 13:19:11;;;;;;;0.70;0.70;;;;;;;;;;1786835;79;21052;-60
2022/07/18 13:21:37;;;;;;;1.07;1.00;;;;;;;;;;1779233;80;21095;-61
2022/07/18 13:24:04;;;;;;;0.80;0.80;;;;;;;;;;1779589;78;21030;-61
2022/07/18 13:26:30;;;;;;;0.93;0.85;;;;;;;;;;1729162;81;21031;-60
2022/07/18 13:28:56;;;;;;;1.17;1.07;;;;;;;;;;1747463;81;21537;-60
2022/07/18 13:31:22;;;;;;;3.33;2.17;;;;;;;;;;1744479;81;21262;-61
2022/07/18 13:33:50;;;;;;;1.72;1.47;;;;;;;;;;1737251;81;21543;-60
2022/07/18 13:36:17;;;;;;;2.22;1.70;;;;;;;;;;1758710;80;21059;-61
2022/07/18 13:38:44;;;;;;;4.33;3.30;;;;;;;;;;1738460;81;21074;-61
2022/07/18 13:41:10;;;;;;;10.95;2.62;;;;;;;;;;1738999;81;21052;-61
2022/07/18 13:43:40;;;;;;;1.72;1.07;;;;;;;;;;1737602;81;21090;-61
2022/07/18 13:46:07;;;;;;;2.98;1.30;;;;;;;;;;1743208;81;21087;-61
2022/07/18 13:48:34;;;;;;;1.20;1.10;;;;;;;;;;1739862;81;21031;-62
2022/07/18 13:51:02;;;;;;;3.10;0.90;;;;;;;;;;1743292;81;21097;-63
2022/07/18 13:53:30;;;;;;;2.22;1.15;;;;;;;;;;1751770;81;21032;-63
2022/07/18 13:55:56;;;;;;;1.35;1.20;;;;;;;;;;1745932;81;21048;-62
2022/07/18 13:58:23;;;;;;;4.15;1.10;;;;;;;;;;1755821;80;21052;-61
2022/07/18 14:00:49;;;;;;;1.15;0.88;;;;;;;;;;1748369;81;21064;-62
2022/07/18 14:03:15;;;;;;;1.30;1.07;;;;;;;;;;1748559;81;21039;-62
2022/07/18 14:05:42;;;;;;;1.77;1.10;;;;;;;;;;1727691;82;21387;-63
2022/07/18 14:08:08;;;;;;;3.30;1.10;;;;;;;;;;1742805;81;21040;-62
2022/07/18 14:10:36;;;;;;;2.50;1.07;;;;;;;;;;1746023;81;21086;-62
2022/07/18 14:13:04;;;;;;;1.40;0.90;;;;;;;;;;1749052;81;21072;-62
2022/07/18 14:15:31;;;;;;;2.47;1.20;;;;;;;;;;1748264;81;21062;-61
2022/07/18 14:17:57;;;;;;;1.65;1.25;;;;;;;;;;1745434;81;21468;-61
2022/07/18 14:20:23;;;;;;;0.98;0.98;;;;;;;;;;1755732;80;21008;-61
2022/07/18 14:22:49;;;;;;;3.30;1.47;;;;;;;;;;1748809;80;21021;-61
2022/07/18 14:25:17;;;;;;;3.87;1.10;;;;;;;;;;1738867;80;21014;-61
2022/07/18 14:27:43;;;;;;;2.02;1.10;;;;;;;;;;1739800;81;21060;-61
2022/07/18 14:30:12;;;;;;;5.10;1.55;;;;;;;;;;1764403;80;21060;-61
2022/07/18 14:32:40;;;;;;;2.35;1.07;;;;;;;;;;1755852;80;21650;-60
2022/07/18 14:35:07;;;;;;;1.30;1.20;;;;;;;;;;1754007;81;21028;-61
2022/07/18 14:37:33;;;;;;;3.12;1.10;;;;;;;;;;1777916;80;21538;-60
2022/07/18 14:40:01;;;;;;;1.02;1.00;;;;;;;;;;1784910;78;21114;-60
2022/07/18 14:42:28;;;;;;;1.00;1.00;;;;;;;;;;1779113;80;21098;-61
2022/07/18 14:44:56;;;;;;;1.90;1.10;;;;;;;;;;1790364;80;21047;-61
2022/07/18 14:47:23;;;;;;;0.88;0.88;;;;;;;;;;1781973;80;21021;-61
2022/07/18 14:49:49;;;;;;;1.20;1.10;;;;;;;;;;1760911;80;21027;-61
2022/07/18 14:52:15;;;;;;;1.27;0.93;;;;;;;;;;1753003;81;21071;-61
2022/07/18 14:54:42;;;;;;;1.10;0.90;;;;;;;;;;1752555;81;21063;-60
2022/07/18 14:57:08;;;;;;;1.20;1.10;;;;;;;;;;1743409;81;21093;-61
2022/07/18 14:59:36;;;;;;;2.62;1.10;;;;;;;;;;1756873;80;21042;-62
2022/07/18 15:02:05;;;;;;;5.00;1.98;;;;;;;;;;1765085;81;21535;-63
2022/07/18 15:04:32;;;;;;;0.93;0.88;;;;;;;;;;1754023;80;21060;-62
2022/07/18 15:06:58;;;;;;;1.10;1.00;;;;;;;;;;1765968;81;21409;-61
2022/07/18 15:09:24;;;;;;;2.05;1.55;;;;;;;;;;1757609;78;21602;-62
2022/07/18 15:11:52;;;;;;;1.57;1.35;;;;;;;;;;1760172;78;21085;-62
2022/07/18 15:14:18;;;;;;;2.35;1.70;;;;;;;;;;1760812;78;21490;-61
2022/07/18 15:16:44;;;;;;;0.93;0.93;;;;;;;;;;1753439;78;21055;-62
2022/07/18 15:19:10;;;;;;;3.87;1.40;;;;;;;;;;1751347;81;21059;-62
2022/07/18 15:21:37;;;;;;;2.55;1.42;;;;;;;;;;1762653;81;21047;-62